createdAt,value
2023-09-12T00:01:21.265Z,15.82
2023-09-12T00:05:43.326Z,15.07
2023-09-12T00:10:06.036Z,16.60
2023-09-12T00:14:28.217Z,14.80
2023-09-12T00:18:50.467Z,14.00
2023-09-12T00:23:12.478Z,16.25
2023-09-12T00:27:34.512Z,16.45
2023-09-12T00:31:56.309Z,15.55
2023-09-12T00:36:18.709Z,19.60
2023-09-12T00:40:40.719Z,19.02
2023-09-12T00:45:02.708Z,19.80
2023-09-12T00:49:26.140Z,15.63
2023-09-12T00:53:48.891Z,16.38
2023-09-12T00:58:11.025Z,17.77
2023-09-12T01:02:33.434Z,16.13
2023-09-12T01:06:55.778Z,17.35
2023-09-12T01:11:18.892Z,18.85
2023-09-12T01:15:40.902Z,16.05
2023-09-12T01:20:07.723Z,20.23
2023-09-12T01:25:09.328Z,19.17
2023-09-12T01:29:32.998Z,16.17
2023-09-12T01:33:59.000Z,20.08
2023-09-12T01:38:22.359Z,19.30
2023-09-12T01:42:48.536Z,18.10
2023-09-12T01:47:12.778Z,15.68
2023-09-12T01:51:36.049Z,19.10
2023-09-12T01:55:59.719Z,15.05
2023-09-12T02:00:23.152Z,18.33
2023-09-12T02:05:16.759Z,17.88
2023-09-12T02:09:41.230Z,16.48
2023-09-12T02:14:03.861Z,16.00
2023-09-12T02:18:31.680Z,17.25
2023-09-12T02:22:53.818Z,18.98
2023-09-12T02:27:16.087Z,18.20
2023-09-12T02:31:38.285Z,17.25
2023-09-12T02:36:01.121Z,17.65
2023-09-12T02:40:23.319Z,19.88
2023-09-12T02:44:45.117Z,15.30
2023-09-12T02:49:12.353Z,16.15
2023-09-12T02:53:34.460Z,18.20
2023-09-12T02:57:57.318Z,18.45
2023-09-12T03:02:19.726Z,17.80
2023-09-12T03:06:42.244Z,19.80
2023-09-12T03:11:04.453Z,19.40
2023-09-12T03:15:26.355Z,18.95
2023-09-12T03:19:48.920Z,20.38
2023-09-12T03:24:11.181Z,21.63
2023-09-12T03:28:34.570Z,22.15
2023-09-12T03:32:56.982Z,20.75
2023-09-12T03:37:19.510Z,22.38
2023-09-12T03:41:41.926Z,21.08
2023-09-12T03:46:07.663Z,23.60
2023-09-12T03:50:29.823Z,22.40
2023-09-12T03:54:51.953Z,23.48
2023-09-12T03:59:13.938Z,21.90
2023-09-12T04:03:36.605Z,26.42
2023-09-12T04:07:59.043Z,22.23
2023-09-12T04:12:21.216Z,21.23
2023-09-12T04:16:43.571Z,22.55
2023-09-12T04:21:05.980Z,29.15
2023-09-12T04:25:28.301Z,22.95
2023-09-12T04:29:50.557Z,25.90
2023-09-12T04:34:12.659Z,23.80
2023-09-12T04:38:34.971Z,23.85
2023-09-12T04:42:56.956Z,28.80
2023-09-12T04:47:19.116Z,28.58
2023-09-12T04:51:41.360Z,29.02
2023-09-12T04:56:04.475Z,28.10
2023-09-12T05:00:26.543Z,26.55
2023-09-12T05:04:48.853Z,26.50
2023-09-12T05:09:12.340Z,20.08
2023-09-12T05:13:35.196Z,20.60
2023-09-12T05:17:57.699Z,18.83
2023-09-12T05:22:21.408Z,22.25
2023-09-12T05:26:44.520Z,17.75
2023-09-12T05:31:07.455Z,19.67
2023-09-12T05:35:36.462Z,17.77
2023-09-12T05:40:01.616Z,17.83
2023-09-12T05:44:23.982Z,16.23
2023-09-12T05:48:47.251Z,15.02
2023-09-12T05:53:10.038Z,19.65
2023-09-12T05:57:34.513Z,15.77
2023-09-12T06:01:56.790Z,15.55
2023-09-12T06:06:19.394Z,17.95
2023-09-12T06:10:41.472Z,14.52
2023-09-12T06:15:05.657Z,19.23
2023-09-12T06:19:27.878Z,14.23
2023-09-12T06:24:11.637Z,16.45
2023-09-12T06:28:34.107Z,14.57
2023-09-12T06:32:59.247Z,16.45
2023-09-12T06:37:21.593Z,13.80
2023-09-12T06:41:44.025Z,14.82
2023-09-12T06:46:06.494Z,18.00
2023-09-12T06:50:32.902Z,16.75
2023-09-12T06:54:56.977Z,15.27
2023-09-12T06:59:19.420Z,15.07
2023-09-12T07:03:41.679Z,19.05
2023-09-12T07:08:05.775Z,13.15
2023-09-12T07:12:30.383Z,17.65
2023-09-12T07:16:57.673Z,20.55
2023-09-12T07:21:21.550Z,16.33
2023-09-12T07:25:43.755Z,23.10
2023-09-12T07:30:08.408Z,20.30
2023-09-12T07:34:30.593Z,11.88
2023-09-12T07:39:01.920Z,14.63
2023-09-12T07:43:24.317Z,14.45
2023-09-12T07:47:46.589Z,13.55
2023-09-12T07:52:09.662Z,14.23
2023-09-12T07:56:31.685Z,10.38
2023-09-12T08:00:53.765Z,19.00
2023-09-12T08:05:16.421Z,14.63
2023-09-12T08:10:00.533Z,15.60
2023-09-12T08:14:22.977Z,14.63
2023-09-12T08:18:45.770Z,14.35
2023-09-12T08:23:07.761Z,12.75
2023-09-12T08:27:29.783Z,15.52
2023-09-12T08:31:53.719Z,15.05
2023-09-12T08:36:15.812Z,14.40
2023-09-12T08:40:38.054Z,13.07
2023-09-12T08:45:00.034Z,11.85
2023-09-12T08:49:22.176Z,13.30
2023-09-12T08:53:44.394Z,9.55
2023-09-12T08:58:07.993Z,13.68
2023-09-12T09:02:31.538Z,13.80
2023-09-12T09:06:56.133Z,16.27
2023-09-12T09:11:19.056Z,16.92
2023-09-12T09:15:43.554Z,14.48
2023-09-12T09:20:10.447Z,15.48
2023-09-12T09:24:32.688Z,14.48
2023-09-12T09:29:24.380Z,13.07
2023-09-12T09:33:52.679Z,12.27
2023-09-12T09:38:20.296Z,13.95
2023-09-12T09:42:42.627Z,12.65
2023-09-12T09:47:07.466Z,19.60
2023-09-12T09:51:33.437Z,16.98
2023-09-12T09:56:16.502Z,18.38
2023-09-12T10:00:39.306Z,19.75
2023-09-12T10:05:05.858Z,10.50
2023-09-12T10:09:29.909Z,13.82
2023-09-12T10:14:00.545Z,14.90
2023-09-12T10:18:29.112Z,16.65
2023-09-12T10:23:08.357Z,12.93
2023-09-12T10:27:31.985Z,19.27
2023-09-12T10:31:54.299Z,9.77
2023-09-12T10:36:20.915Z,14.88
2023-09-12T10:40:44.929Z,20.42
2023-09-12T10:45:09.648Z,10.82
2023-09-12T10:49:32.947Z,13.73
2023-09-12T10:53:55.363Z,10.98
2023-09-12T10:58:17.470Z,16.08
2023-09-12T11:02:41.858Z,13.00
2023-09-12T11:07:42.029Z,11.75
2023-09-12T11:12:06.442Z,15.40
2023-09-12T11:16:28.674Z,13.50
2023-09-12T11:21:09.371Z,12.80
2023-09-12T11:25:32.640Z,10.77
2023-09-12T11:29:55.429Z,15.63
2023-09-12T11:34:18.189Z,12.43
2023-09-12T11:38:42.029Z,16.50
2023-09-12T11:43:08.847Z,13.45
2023-09-12T11:47:31.344Z,17.00
2023-09-12T11:51:55.542Z,12.98
2023-09-12T11:56:18.021Z,16.52
2023-09-12T12:00:52.762Z,18.80
2023-09-12T12:05:16.518Z,16.17
2023-09-12T12:09:38.532Z,14.02
2023-09-12T12:14:12.736Z,15.57
2023-09-12T12:18:37.668Z,16.13
2023-09-12T12:22:59.959Z,21.58
2023-09-12T12:27:22.080Z,18.00
2023-09-12T12:31:44.377Z,16.10
2023-09-12T12:36:09.370Z,17.85
2023-09-12T12:40:42.355Z,16.20
2023-09-12T12:45:16.818Z,18.27
2023-09-12T12:49:42.779Z,18.38
2023-09-12T12:54:07.367Z,16.00
2023-09-12T12:58:29.530Z,19.00
2023-09-12T13:02:51.840Z,29.60
2023-09-12T13:07:14.130Z,23.25
2023-09-12T13:11:36.459Z,15.88
2023-09-12T13:15:59.205Z,20.13
2023-09-12T13:20:22.923Z,16.05
2023-09-12T13:24:49.426Z,19.23
2023-09-12T13:29:11.941Z,17.25
2023-09-12T13:33:35.079Z,18.77
2023-09-12T13:37:57.459Z,15.13
2023-09-12T13:42:22.606Z,21.17
2023-09-12T13:46:47.757Z,16.02
2023-09-12T13:51:10.179Z,14.73
2023-09-12T13:55:45.414Z,16.38
2023-09-12T14:00:19.974Z,16.92
2023-09-12T14:04:44.219Z,15.43
2023-09-12T14:09:07.027Z,18.02
2023-09-12T14:13:29.473Z,16.13
2023-09-12T14:17:56.988Z,18.58
2023-09-12T14:22:21.663Z,18.27
2023-09-12T14:26:45.930Z,17.58
2023-09-12T14:31:14.958Z,32.70
2023-09-12T14:35:40.210Z,17.48
2023-09-12T14:40:07.159Z,17.63
2023-09-12T14:44:29.538Z,15.70
2023-09-12T14:49:00.706Z,15.80
2023-09-12T14:53:24.518Z,16.83
2023-09-12T14:57:46.778Z,21.02
2023-09-12T15:02:08.925Z,19.40
2023-09-12T15:06:34.506Z,22.50
2023-09-12T15:10:56.757Z,19.65
2023-09-12T15:15:22.972Z,19.10
2023-09-12T15:19:45.458Z,16.92
2023-09-12T15:24:07.859Z,18.65
2023-09-12T15:28:29.901Z,17.77
2023-09-12T15:32:51.764Z,22.40
2023-09-12T15:41:40.211Z,16.35
2023-09-12T15:46:02.291Z,17.98
2023-09-12T15:50:24.239Z,25.48
2023-09-12T15:54:46.567Z,18.90
2023-09-12T15:59:08.707Z,16.38
2023-09-12T16:03:31.948Z,19.05
2023-09-12T16:07:53.979Z,21.00
2023-09-12T16:12:16.063Z,20.98
2023-09-12T16:16:38.224Z,18.50
2023-09-12T16:21:00.544Z,17.35
2023-09-12T16:25:22.526Z,17.05
2023-09-12T16:29:44.603Z,15.93
2023-09-12T16:34:06.829Z,15.30
2023-09-12T16:38:30.094Z,20.05
2023-09-12T16:42:53.372Z,18.80
2023-09-12T16:47:15.567Z,20.42
2023-09-12T16:51:37.602Z,22.83
2023-09-12T16:56:00.653Z,27.90
2023-09-12T17:00:23.631Z,20.23
2023-09-12T17:04:46.005Z,19.13
2023-09-12T17:09:08.047Z,20.35
2023-09-12T17:13:30.370Z,18.60
2023-09-12T17:17:52.895Z,17.55
2023-09-12T17:22:15.159Z,19.23
2023-09-12T17:26:37.530Z,24.15
2023-09-12T17:30:59.721Z,19.05
2023-09-12T17:35:22.316Z,22.02
2023-09-12T17:39:44.534Z,20.63
2023-09-12T17:44:06.788Z,21.75
2023-09-12T17:48:29.084Z,19.48
2023-09-12T17:52:51.278Z,25.20
2023-09-12T17:57:13.536Z,25.52
2023-09-12T18:01:35.407Z,22.73
2023-09-12T18:05:57.397Z,22.25
2023-09-12T18:10:20.416Z,21.65
2023-09-12T18:14:42.317Z,23.42
2023-09-12T18:19:04.415Z,19.08
2023-09-12T18:23:26.398Z,17.95
2023-09-12T18:27:48.729Z,24.08
2023-09-12T18:32:10.777Z,18.83
2023-09-12T18:36:32.758Z,19.48
2023-09-12T18:40:54.759Z,23.60
2023-09-12T18:45:17.066Z,21.33
2023-09-12T18:49:39.404Z,20.80
2023-09-12T18:54:01.383Z,27.38
2023-09-12T18:58:23.601Z,21.48
2023-09-12T19:02:47.052Z,29.05
2023-09-12T19:07:09.304Z,27.58
2023-09-12T19:11:31.610Z,25.77
2023-09-12T19:15:53.653Z,19.70
2023-09-12T19:20:15.972Z,26.48
2023-09-12T19:24:38.132Z,22.02
2023-09-12T19:29:00.514Z,22.63
2023-09-12T19:33:23.097Z,22.63
2023-09-12T19:37:46.958Z,27.73
2023-09-12T19:42:09.381Z,26.63
2023-09-12T19:46:32.096Z,22.02
2023-09-12T19:50:54.396Z,21.98
2023-09-12T19:55:16.537Z,23.25
2023-09-12T19:59:38.557Z,27.63
2023-09-12T20:04:01.453Z,24.58
2023-09-12T20:08:24.116Z,22.63
2023-09-12T20:12:46.556Z,22.70
2023-09-12T20:17:08.609Z,26.30
2023-09-12T20:21:30.458Z,26.58
2023-09-12T20:25:54.926Z,22.45
2023-09-12T20:30:17.466Z,21.85
2023-09-12T20:34:39.472Z,21.05
2023-09-12T20:39:26.549Z,21.55
2023-09-12T20:43:48.760Z,23.27
2023-09-12T20:48:10.833Z,19.52
2023-09-12T20:52:33.040Z,20.90
2023-09-12T20:56:54.838Z,21.80
2023-09-12T21:01:17.001Z,26.30
2023-09-12T21:05:39.131Z,23.98
2023-09-12T21:10:01.005Z,21.75
2023-09-12T21:14:23.218Z,21.38
2023-09-12T21:18:45.916Z,29.05
2023-09-12T21:23:08.246Z,20.10
2023-09-12T21:27:30.322Z,20.88
2023-09-12T21:31:52.394Z,18.73
2023-09-12T21:36:14.819Z,23.38
2023-09-12T21:40:36.930Z,18.45
2023-09-12T21:44:59.358Z,20.48
2023-09-12T21:49:21.599Z,17.40
2023-09-12T21:53:45.731Z,22.05
2023-09-12T21:58:08.302Z,28.50
2023-09-12T22:02:30.278Z,28.50
2023-09-12T22:06:52.429Z,20.70
2023-09-12T22:11:15.829Z,17.35
2023-09-12T22:15:42.453Z,18.02
2023-09-12T22:20:07.178Z,19.55
2023-09-12T22:24:29.177Z,21.02
2023-09-12T22:28:51.099Z,19.38
2023-09-12T22:33:12.952Z,19.67
2023-09-12T22:37:35.148Z,16.10
2023-09-12T22:41:57.404Z,18.58
2023-09-12T22:46:19.618Z,18.83
2023-09-12T22:50:43.839Z,21.25
2023-09-12T22:55:07.439Z,19.90
2023-09-12T22:59:30.482Z,19.20
2023-09-12T23:03:52.909Z,19.00
2023-09-12T23:08:14.859Z,19.23
2023-09-12T23:12:37.085Z,19.73
2023-09-12T23:16:58.949Z,18.27
2023-09-12T23:21:21.480Z,21.27
2023-09-12T23:25:44.499Z,16.73
2023-09-12T23:30:07.758Z,18.75
2023-09-12T23:34:29.965Z,19.10
2023-09-12T23:38:52.237Z,21.63
2023-09-12T23:43:14.562Z,19.63
2023-09-12T23:47:37.148Z,17.95
2023-09-12T23:51:59.375Z,19.85
2023-09-12T23:56:21.303Z,18.23
